N60SB KPIE-KATL
Flight info
| Callsign | N60SB |
|---|---|
| Flight time | N/A |
| Altitude | 26000 |
| Route | MOMIE BRUTS Q118 JAMIZ |
| Aircraft | C130/M-SDE2E3FGRY/H |
Departure
| Time | 2026-04-26 03:14 |
|---|---|
| Airport | St. Petersburg Clearwater International Airport (KPIE) |
Arrival
| Time | N/A |
|---|---|
| Airport | Hartsfield Jackson Atlanta International Airport (KATL) |
| Time | Latitude | Longitude | Altitude | Speed | Heading |
|---|---|---|---|---|---|
| 2026-04-26 02:31 | 27.91508 | -82.69186 | 24 ft | 0 kts | 256° |
| 2026-04-26 02:43 | 27.91508 | -82.69187 | 22 ft | 0 kts | 256° |
| 2026-04-26 02:52 | 27.91507 | -82.69187 | 22 ft | 1 kts | 256° |
| 2026-04-26 02:52 | 27.91502 | -82.69203 | 26 ft | 3 kts | 234° |
| 2026-04-26 02:52 | 27.91492 | -82.69208 | 24 ft | 5 kts | 182° |
| 2026-04-26 02:53 | 27.91465 | -82.69194 | 22 ft | 11 kts | 141° |
| 2026-04-26 02:53 | 27.91446 | -82.69146 | 23 ft | 16 kts | 108° |
| 2026-04-26 02:53 | 27.91440 | -82.69095 | 21 ft | 14 kts | 91° |
| 2026-04-26 02:53 | 27.91432 | -82.69074 | 25 ft | 4 kts | 153° |
| 2026-04-26 02:54 | 27.91403 | -82.69065 | 25 ft | 14 kts | 171° |
| 2026-04-26 02:54 | 27.91341 | -82.69055 | 24 ft | 23 kts | 171° |
| 2026-04-26 02:54 | 27.91253 | -82.69039 | 24 ft | 28 kts | 170° |
| 2026-04-26 02:54 | 27.91156 | -82.69008 | 24 ft | 31 kts | 158° |
| 2026-04-26 02:55 | 27.91075 | -82.68988 | 21 ft | 22 kts | 189° |
| 2026-04-26 02:55 | 27.91000 | -82.68990 | 25 ft | 21 kts | 174° |
| 2026-04-26 02:55 | 27.90960 | -82.68983 | 25 ft | 19 kts | 172° |
| 2026-04-26 02:55 | 27.90897 | -82.68974 | 25 ft | 17 kts | 173° |
| 2026-04-26 02:56 | 27.90840 | -82.68967 | 25 ft | 17 kts | 173° |
| 2026-04-26 02:56 | 27.90774 | -82.68957 | 22 ft | 21 kts | 172° |
| 2026-04-26 02:56 | 27.90698 | -82.68943 | 25 ft | 23 kts | 171° |
| 2026-04-26 02:56 | 27.90615 | -82.68928 | 23 ft | 25 kts | 171° |
| 2026-04-26 02:57 | 27.90548 | -82.68907 | 22 ft | 12 kts | 140° |
| 2026-04-26 02:57 | 27.90537 | -82.68877 | 24 ft | 7 kts | 85° |
| 2026-04-26 02:57 | 27.90549 | -82.68845 | 24 ft | 10 kts | 66° |
| 2026-04-26 02:57 | 27.90557 | -82.68804 | 26 ft | 17 kts | 84° |
| 2026-04-26 02:58 | 27.90565 | -82.68714 | 22 ft | 23 kts | 84° |
| 2026-04-26 02:58 | 27.90574 | -82.68620 | 18 ft | 22 kts | 95° |
| 2026-04-26 02:58 | 27.90568 | -82.68536 | 18 ft | 17 kts | 79° |
| 2026-04-26 02:58 | 27.90599 | -82.68494 | 18 ft | 14 kts | 39° |
| 2026-04-26 02:59 | 27.90639 | -82.68457 | 19 ft | 18 kts | 38° |
| 2026-04-26 02:59 | 27.90695 | -82.68403 | 19 ft | 22 kts | 43° |
| 2026-04-26 02:59 | 27.90752 | -82.68346 | 19 ft | 22 kts | 40° |
| 2026-04-26 02:59 | 27.90817 | -82.68287 | 17 ft | 24 kts | 39° |
| 2026-04-26 03:00 | 27.90891 | -82.68219 | 19 ft | 32 kts | 40° |
| 2026-04-26 03:00 | 27.90983 | -82.68130 | 19 ft | 37 kts | 40° |
| 2026-04-26 03:00 | 27.91084 | -82.68030 | 19 ft | 40 kts | 40° |
| 2026-04-26 03:00 | 27.91195 | -82.67925 | 20 ft | 43 kts | 39° |
| 2026-04-26 03:01 | 27.91274 | -82.67852 | 18 ft | 8 kts | 47° |
| 2026-04-26 03:01 | 27.91285 | -82.67832 | 19 ft | 3 kts | 66° |
| 2026-04-26 03:01 | 27.91286 | -82.67815 | 25 ft | 5 kts | 95° |
| 2026-04-26 03:01 | 27.91281 | -82.67795 | 18 ft | 6 kts | 115° |
| 2026-04-26 03:02 | 27.91270 | -82.67773 | 20 ft | 7 kts | 123° |
| 2026-04-26 03:02 | 27.91256 | -82.67758 | 19 ft | 5 kts | 159° |
| 2026-04-26 03:02 | 27.91215 | -82.67772 | 19 ft | 23 kts | 213° |
| 2026-04-26 03:02 | 27.91113 | -82.67865 | 20 ft | 57 kts | 219° |
| 2026-04-26 03:03 | 27.90908 | -82.68056 | 18 ft | 96 kts | 220° |
| 2026-04-26 03:03 | 27.90691 | -82.68260 | 20 ft | 42 kts | 219° |
| 2026-04-26 03:03 | 27.90669 | -82.68281 | 19 ft | 0 kts | 220° |
| 2026-04-26 03:03 | 27.90668 | -82.68281 | 19 ft | 5 kts | 220° |
| 2026-04-26 03:04 | 27.90590 | -82.68356 | 20 ft | 53 kts | 220° |
| 2026-04-26 03:04 | 27.90425 | -82.68514 | 20 ft | 57 kts | 221° |
| 2026-04-26 03:04 | 27.90271 | -82.68660 | 22 ft | 55 kts | 219° |
| 2026-04-26 03:04 | 27.90129 | -82.68787 | 22 ft | 50 kts | 220° |
| 2026-04-26 03:05 | 27.90035 | -82.68876 | 21 ft | 15 kts | 223° |
| 2026-04-26 03:05 | 27.90029 | -82.68880 | 18 ft | 1 kts | 176° |
| 2026-04-26 03:05 | 27.90029 | -82.68876 | 18 ft | 1 kts | 75° |
| 2026-04-26 03:05 | 27.90034 | -82.68876 | 20 ft | 0 kts | 347° |
| 2026-04-26 03:06 | 27.90048 | -82.68875 | 20 ft | 12 kts | 3° |
| 2026-04-26 03:06 | 27.90053 | -82.68875 | 18 ft | 12 kts | 4° |
| 2026-04-26 03:06 | 27.90093 | -82.68870 | 19 ft | 0 kts | 7° |
| 2026-04-26 03:07 | 27.90122 | -82.68865 | 21 ft | 26 kts | 8° |
| 2026-04-26 03:07 | 27.90262 | -82.68867 | 22 ft | 39 kts | 353° |
| 2026-04-26 03:07 | 27.90403 | -82.68892 | 23 ft | 44 kts | 352° |
| 2026-04-26 03:07 | 27.90546 | -82.68918 | 23 ft | 38 kts | 352° |
| 2026-04-26 03:08 | 27.90664 | -82.68940 | 24 ft | 31 kts | 349° |
| 2026-04-26 03:08 | 27.90762 | -82.68957 | 24 ft | 25 kts | 351° |
| 2026-04-26 03:08 | 27.90838 | -82.68970 | 22 ft | 19 kts | 353° |
| 2026-04-26 03:08 | 27.90919 | -82.68982 | 22 ft | 38 kts | 351° |
| 2026-04-26 03:09 | 27.91098 | -82.69016 | 22 ft | 54 kts | 350° |
| 2026-04-26 03:09 | 27.91298 | -82.69053 | 24 ft | 62 kts | 350° |
| 2026-04-26 03:09 | 27.91516 | -82.69088 | 23 ft | 66 kts | 351° |
| 2026-04-26 03:09 | 27.91737 | -82.69126 | 23 ft | 57 kts | 350° |
| 2026-04-26 03:10 | 27.91907 | -82.69157 | 23 ft | 42 kts | 349° |
| 2026-04-26 03:10 | 27.92033 | -82.69179 | 21 ft | 32 kts | 352° |
| 2026-04-26 03:10 | 27.92130 | -82.69192 | 21 ft | 24 kts | 349° |
| 2026-04-26 03:10 | 27.92205 | -82.69206 | 22 ft | 19 kts | 351° |
| 2026-04-26 03:11 | 27.92262 | -82.69210 | 21 ft | 14 kts | 8° |
| 2026-04-26 03:11 | 27.92303 | -82.69191 | 21 ft | 11 kts | 38° |
| 2026-04-26 03:11 | 27.92328 | -82.69143 | 22 ft | 17 kts | 77° |
| 2026-04-26 03:11 | 27.92329 | -82.69077 | 20 ft | 15 kts | 107° |
| 2026-04-26 03:12 | 27.92315 | -82.69062 | 20 ft | 0 kts | 174° |
| 2026-04-26 03:12 | 27.92313 | -82.69062 | 20 ft | 0 kts | 173° |
| 2026-04-26 03:12 | 27.92299 | -82.69060 | 20 ft | 20 kts | 173° |
| 2026-04-26 03:12 | 27.92146 | -82.69036 | 24 ft | 67 kts | 174° |
| 2026-04-26 03:13 | 27.91848 | -82.68986 | 22 ft | 105 kts | 171° |
| 2026-04-26 03:13 | 27.91431 | -82.68915 | 36 ft | 135 kts | 174° |
| 2026-04-26 03:13 | 27.90942 | -82.68835 | 177 ft | 145 kts | 174° |
| 2026-04-26 03:13 | 27.90417 | -82.68758 | 342 ft | 158 kts | 174° |
| 2026-04-26 03:14 | 27.89856 | -82.68674 | 549 ft | 166 kts | 173° |
| 2026-04-26 03:14 | 27.89277 | -82.68577 | 747 ft | 174 kts | 172° |
| 2026-04-26 03:14 | 27.88668 | -82.68471 | 945 ft | 180 kts | 172° |
| 2026-04-26 03:14 | 27.88039 | -82.68360 | 1177 ft | 185 kts | 172° |
| 2026-04-26 03:15 | 27.87394 | -82.68245 | 1426 ft | 190 kts | 172° |
| 2026-04-26 03:15 | 27.86724 | -82.68126 | 1543 ft | 203 kts | 172° |
| 2026-04-26 03:15 | 27.85999 | -82.67998 | 1594 ft | 217 kts | 172° |
| 2026-04-26 03:15 | 27.85227 | -82.67872 | 1620 ft | 230 kts | 176° |
| 2026-04-26 03:16 | 27.84407 | -82.67920 | 1620 ft | 242 kts | 193° |
| 2026-04-26 03:16 | 27.83603 | -82.68259 | 1620 ft | 253 kts | 210° |
| 2026-04-26 03:16 | 27.82906 | -82.68885 | 1678 ft | 258 kts | 230° |
| 2026-04-26 03:16 | 27.82419 | -82.69697 | 2061 ft | 250 kts | 239° |
| 2026-04-26 03:17 | 27.82003 | -82.70557 | 2363 ft | 248 kts | 241° |
| 2026-04-26 03:17 | 27.81611 | -82.71420 | 2677 ft | 245 kts | 242° |
| 2026-04-26 03:17 | 27.81206 | -82.72263 | 2968 ft | 244 kts | 242° |
| 2026-04-26 03:17 | 27.80919 | -82.73162 | 3250 ft | 244 kts | 257° |
| 2026-04-26 03:18 | 27.80871 | -82.74027 | 3500 ft | 246 kts | 274° |
| 2026-04-26 03:18 | 27.81067 | -82.74964 | 3772 ft | 247 kts | 291° |
| 2026-04-26 03:18 | 27.81512 | -82.75799 | 4048 ft | 250 kts | 309° |
| 2026-04-26 03:18 | 27.82161 | -82.76450 | 4313 ft | 251 kts | 326° |
| 2026-04-26 03:19 | 27.82953 | -82.76874 | 4587 ft | 253 kts | 342° |
| 2026-04-26 03:19 | 27.83820 | -82.77042 | 4857 ft | 254 kts | 358° |
| 2026-04-26 03:19 | 27.84699 | -82.76957 | 5125 ft | 254 kts | 10° |
| 2026-04-26 03:19 | 27.85561 | -82.76731 | 5399 ft | 254 kts | 15° |
| 2026-04-26 03:20 | 27.86400 | -82.76452 | 5671 ft | 255 kts | 17° |
| 2026-04-26 03:20 | 27.87245 | -82.76145 | 5952 ft | 255 kts | 18° |
| 2026-04-26 03:20 | 27.88089 | -82.75826 | 6240 ft | 255 kts | 18° |
| 2026-04-26 03:20 | 27.88931 | -82.75501 | 6507 ft | 255 kts | 18° |
| 2026-04-26 03:21 | 27.89771 | -82.75172 | 6781 ft | 256 kts | 18° |
| 2026-04-26 03:21 | 27.90612 | -82.74840 | 7041 ft | 256 kts | 18° |
| 2026-04-26 03:21 | 27.91452 | -82.74506 | 7308 ft | 256 kts | 18° |
| 2026-04-26 03:21 | 27.92283 | -82.74174 | 7578 ft | 256 kts | 18° |
| 2026-04-26 03:22 | 27.93124 | -82.73837 | 7851 ft | 257 kts | 18° |
| 2026-04-26 03:22 | 27.93966 | -82.73498 | 8126 ft | 257 kts | 17° |
| 2026-04-26 03:22 | 27.94811 | -82.73158 | 8406 ft | 257 kts | 17° |
| 2026-04-26 03:22 | 27.95654 | -82.72817 | 8687 ft | 257 kts | 17° |
| 2026-04-26 03:23 | 27.96497 | -82.72476 | 8973 ft | 257 kts | 17° |
| 2026-04-26 03:23 | 27.97340 | -82.72134 | 9258 ft | 258 kts | 17° |
| 2026-04-26 03:23 | 27.98186 | -82.71792 | 9547 ft | 258 kts | 17° |
| 2026-04-26 03:23 | 27.99018 | -82.71454 | 9830 ft | 258 kts | 16° |
| 2026-04-26 03:24 | 27.99868 | -82.71110 | 10093 ft | 258 kts | 16° |
| 2026-04-26 03:24 | 28.00714 | -82.70766 | 10354 ft | 257 kts | 16° |
| 2026-04-26 03:24 | 28.01557 | -82.70423 | 10613 ft | 257 kts | 16° |
| 2026-04-26 03:24 | 28.02392 | -82.70084 | 10886 ft | 257 kts | 16° |
| 2026-04-26 03:25 | 28.03236 | -82.69741 | 11138 ft | 257 kts | 15° |
| 2026-04-26 03:25 | 28.04080 | -82.69428 | 11391 ft | 255 kts | 8° |
| 2026-04-26 03:25 | 28.04949 | -82.69327 | 11645 ft | 249 kts | 355° |
| 2026-04-26 03:25 | 28.05814 | -82.69359 | 11885 ft | 250 kts | 354° |
| 2026-04-26 03:26 | 28.06701 | -82.69401 | 11965 ft | 257 kts | 353° |
| 2026-04-26 03:26 | 28.07298 | -82.69446 | 12001 ft | 262 kts | 351° |
| 2026-04-26 03:26 | 28.08220 | -82.69551 | 12024 ft | 269 kts | 349° |
| 2026-04-26 03:26 | 28.09163 | -82.69686 | 12028 ft | 277 kts | 349° |
| 2026-04-26 03:27 | 28.10130 | -82.69839 | 12028 ft | 284 kts | 348° |
| 2026-04-26 03:27 | 28.11444 | -82.70062 | 12019 ft | 292 kts | 348° |
| 2026-04-26 03:27 | 28.12125 | -82.70183 | 12012 ft | 295 kts | 348° |
| 2026-04-26 03:27 | 28.13146 | -82.70368 | 11996 ft | 300 kts | 347° |
| 2026-04-26 03:28 | 28.14183 | -82.70561 | 11991 ft | 304 kts | 347° |
| 2026-04-26 03:28 | 28.15231 | -82.70760 | 11996 ft | 307 kts | 347° |
| 2026-04-26 03:28 | 28.16287 | -82.70963 | 11996 ft | 310 kts | 347° |
| 2026-04-26 03:28 | 28.17353 | -82.71170 | 11996 ft | 312 kts | 347° |
| 2026-04-26 03:29 | 28.18427 | -82.71380 | 11998 ft | 314 kts | 347° |
| 2026-04-26 03:29 | 28.19462 | -82.71582 | 12465 ft | 295 kts | 347° |
| 2026-04-26 03:29 | 28.20453 | -82.71774 | 12953 ft | 285 kts | 347° |
| 2026-04-26 03:29 | 28.21417 | -82.71963 | 13396 ft | 274 kts | 346° |
| 2026-04-26 03:30 | 28.22346 | -82.72146 | 13809 ft | 266 kts | 346° |
| 2026-04-26 03:30 | 28.23245 | -82.72324 | 14159 ft | 259 kts | 346° |
| 2026-04-26 03:30 | 28.24123 | -82.72499 | 14499 ft | 253 kts | 346° |
| 2026-04-26 03:30 | 28.24981 | -82.72670 | 14822 ft | 248 kts | 346° |
| 2026-04-26 03:31 | 28.25822 | -82.72837 | 15125 ft | 243 kts | 346° |
| 2026-04-26 03:31 | 28.26652 | -82.73003 | 15424 ft | 240 kts | 346° |
| 2026-04-26 03:31 | 28.27457 | -82.73164 | 15710 ft | 236 kts | 346° |
| 2026-04-26 03:31 | 28.28262 | -82.73325 | 15989 ft | 234 kts | 346° |
| 2026-04-26 03:32 | 28.29059 | -82.73485 | 16265 ft | 231 kts | 346° |
| 2026-04-26 03:32 | 28.29847 | -82.73643 | 16531 ft | 229 kts | 347° |
| 2026-04-26 03:32 | 28.30625 | -82.73798 | 16817 ft | 225 kts | 347° |
| 2026-04-26 03:32 | 28.31399 | -82.73953 | 17026 ft | 228 kts | 347° |
| 2026-04-26 03:33 | 28.32206 | -82.74116 | 16863 ft | 243 kts | 347° |
| 2026-04-26 03:33 | 28.33052 | -82.74287 | 16879 ft | 250 kts | 347° |
| 2026-04-26 03:33 | 28.33923 | -82.74463 | 16881 ft | 257 kts | 347° |
| 2026-04-26 03:33 | 28.34815 | -82.74643 | 16900 ft | 263 kts | 347° |
| 2026-04-26 03:34 | 28.35726 | -82.74826 | 16908 ft | 269 kts | 347° |
| 2026-04-26 03:34 | 28.36645 | -82.75010 | 16906 ft | 274 kts | 347° |
| 2026-04-26 03:34 | 28.37594 | -82.75200 | 16909 ft | 279 kts | 347° |
| 2026-04-26 03:34 | 28.38558 | -82.75393 | 16901 ft | 284 kts | 347° |
| 2026-04-26 03:35 | 28.39538 | -82.75589 | 16902 ft | 288 kts | 347° |
| 2026-04-26 03:35 | 28.40532 | -82.75788 | 16907 ft | 291 kts | 347° |
| 2026-04-26 03:35 | 28.41537 | -82.75989 | 16903 ft | 295 kts | 347° |
| 2026-04-26 03:35 | 28.42551 | -82.76192 | 16902 ft | 298 kts | 347° |
| 2026-04-26 03:36 | 28.43580 | -82.76397 | 16898 ft | 300 kts | 347° |
| 2026-04-26 03:36 | 28.44613 | -82.76604 | 16898 ft | 302 kts | 347° |
| 2026-04-26 03:36 | 28.45652 | -82.76812 | 16899 ft | 304 kts | 347° |
| 2026-04-26 03:36 | 28.46687 | -82.77019 | 16898 ft | 306 kts | 347° |
| 2026-04-26 03:37 | 28.47733 | -82.77228 | 16907 ft | 308 kts | 348° |
| 2026-04-26 03:37 | 28.48791 | -82.77440 | 16902 ft | 310 kts | 348° |